Terminal Aerodrome Forecast
Issued by NWS Omaha/Valley, NE

Home | Current Version | Previous Version | Text Only | Print | Product List | Glossary On
Versions: 1 2 3 4 5 6 7 8 9 10 11 12 13 14 15 16 17 18 19 20 21 22 23 24 25 26 27 28 29 30 31 32 33 34 35 36 37 38
000
FTUS43 KOAX 060656 AAA
TAFLNK
TAF AMD
KLNK 060656Z 0607/0706 13015KT P6SM BKN100
      TEMPO 0607/0611 5SM -TSRA BKN060CB
     FM061600 23011KT P6SM OVC050 PROB30 0616/0620 4SM -SHRA BKN040
     FM062000 36015G25KT 5SM -SHRA BKN040
     FM070100 36013KT P6SM OVC050=

USA.gov is the U.S. government's official web portal to all federal, state and local government web resources and services.